createdAt,value
2018-01-07T00:00:58.570Z,8.45
2018-01-07T00:03:31.504Z,8.45
2018-01-07T00:06:03.501Z,8.25
2018-01-07T00:08:34.924Z,8.22
2018-01-07T00:11:05.865Z,8.14
2018-01-07T00:13:36.900Z,8.01
2018-01-07T00:16:28.632Z,8.01
2018-01-07T00:19:05.594Z,8.00
2018-01-07T00:21:42.566Z,7.98
2018-01-07T00:24:18.788Z,7.97
2018-01-07T00:26:53.029Z,7.97
2018-01-07T00:29:29.685Z,7.99
2018-01-07T00:32:06.224Z,8.01
2018-01-07T00:34:39.625Z,8.02
2018-01-07T00:37:18.162Z,8.04
2018-01-07T00:39:50.068Z,8.05
2018-01-07T00:42:21.346Z,8.06
2018-01-07T00:44:53.038Z,7.99
2018-01-07T00:47:24.548Z,7.88
2018-01-07T00:49:55.624Z,7.88
2018-01-07T00:52:27.716Z,7.90
2018-01-07T00:54:59.106Z,7.96
2018-01-07T00:57:29.913Z,7.90
2018-01-07T01:00:00.658Z,7.88
2018-01-07T01:02:31.671Z,7.84
2018-01-07T01:05:02.808Z,7.82
2018-01-07T01:07:34.687Z,7.72
2018-01-07T01:10:05.570Z,7.74
2018-01-07T01:12:36.291Z,7.74
2018-01-07T01:15:08.811Z,7.79
2018-01-07T01:17:39.824Z,7.85
2018-01-07T01:20:14.750Z,7.71
2018-01-07T01:22:45.336Z,7.68
2018-01-07T01:25:15.957Z,7.66
2018-01-07T01:27:46.876Z,7.75
2018-01-07T01:30:19.517Z,7.73
2018-01-07T01:32:50.056Z,7.69
2018-01-07T01:35:21.096Z,7.63
2018-01-07T01:37:51.598Z,7.63
2018-01-07T01:40:22.042Z,7.63
2018-01-07T01:42:53.655Z,7.65
2018-01-07T01:45:26.440Z,7.71
2018-01-07T01:47:57.282Z,7.70
2018-01-07T01:50:27.834Z,7.63
2018-01-07T01:52:58.166Z,7.65
2018-01-07T01:55:28.838Z,7.57
2018-01-07T01:57:59.087Z,7.57
2018-01-07T02:00:30.512Z,7.61
2018-01-07T02:03:02.120Z,7.56
2018-01-07T02:05:34.393Z,7.53
2018-01-07T02:08:09.590Z,7.43
2018-01-07T02:10:40.712Z,7.52
2018-01-07T02:13:11.560Z,7.44
2018-01-07T02:15:42.257Z,7.11
2018-01-07T02:18:13.350Z,7.37
2018-01-07T02:20:44.562Z,7.33
2018-01-07T02:23:15.120Z,7.37
2018-01-07T02:25:46.086Z,7.32
2018-01-07T02:28:17.033Z,7.23
2018-01-07T02:30:47.983Z,7.29
2018-01-07T02:33:19.670Z,7.38
2018-01-07T02:35:50.803Z,7.41
2018-01-07T02:38:22.911Z,7.40
2018-01-07T02:40:53.516Z,7.46
2018-01-07T02:43:25.019Z,7.39
2018-01-07T02:45:56.026Z,7.30
2018-01-07T02:48:26.522Z,7.30
2018-01-07T02:50:57.472Z,7.27
2018-01-07T02:53:29.463Z,7.28
2018-01-07T02:56:01.608Z,7.31
2018-01-07T02:58:32.622Z,7.33
2018-01-07T03:01:05.502Z,7.31
2018-01-07T03:03:37.740Z,7.28
2018-01-07T03:06:15.119Z,7.25
2018-01-07T03:08:45.868Z,7.26
2018-01-07T03:11:17.474Z,7.26
2018-01-07T03:13:49.434Z,7.26
2018-01-07T03:16:22.423Z,7.27
2018-01-07T03:18:54.193Z,7.39
2018-01-07T03:21:25.768Z,7.32
2018-01-07T03:23:57.829Z,7.25
2018-01-07T03:26:30.162Z,7.24
2018-01-07T03:29:02.576Z,7.34
2018-01-07T03:31:35.014Z,7.34
2018-01-07T03:34:10.186Z,7.31
2018-01-07T03:36:41.510Z,7.29
2018-01-07T03:39:18.796Z,7.30
2018-01-07T03:41:49.370Z,7.41
2018-01-07T03:44:20.646Z,7.33
2018-01-07T03:46:51.530Z,7.32
2018-01-07T03:49:22.642Z,7.28
2018-01-07T03:51:53.889Z,7.22
2018-01-07T03:54:24.260Z,7.24
2018-01-07T03:56:56.999Z,7.15
2018-01-07T03:59:28.114Z,7.22
2018-01-07T04:01:58.913Z,7.33
2018-01-07T04:04:29.541Z,7.32
2018-01-07T04:07:00.071Z,7.27
2018-01-07T04:09:33.176Z,7.25
2018-01-07T04:12:05.350Z,7.29
2018-01-07T04:14:36.797Z,7.22
2018-01-07T04:17:09.583Z,7.23
2018-01-07T04:19:40.316Z,7.25
2018-01-07T04:22:11.194Z,7.27
2018-01-07T04:24:41.852Z,7.29
2018-01-07T04:27:12.785Z,7.37
2018-01-07T04:29:43.248Z,7.35
2018-01-07T04:32:14.403Z,7.43
2018-01-07T04:34:45.437Z,7.38
2018-01-07T04:37:16.191Z,7.29
2018-01-07T04:39:47.703Z,7.35
2018-01-07T04:42:18.543Z,7.35
2018-01-07T04:44:50.460Z,7.34
2018-01-07T04:47:21.575Z,7.19
2018-01-07T04:49:52.284Z,7.27
2018-01-07T04:52:24.854Z,7.14
2018-01-07T04:54:55.980Z,7.22
2018-01-07T04:57:28.016Z,7.24
2018-01-07T04:59:59.565Z,7.21
2018-01-07T05:02:31.019Z,7.03
2018-01-07T05:05:02.371Z,7.01
2018-01-07T05:07:32.864Z,7.03
2018-01-07T05:10:03.194Z,7.07
2018-01-07T05:12:34.620Z,6.99
2018-01-07T05:15:20.210Z,6.96
2018-01-07T05:17:54.274Z,6.98
2018-01-07T05:20:26.189Z,6.93
2018-01-07T05:25:39.122Z,6.93
2018-01-07T05:28:10.362Z,7.02
2018-01-07T05:30:41.360Z,7.09
2018-01-07T05:33:11.966Z,7.14
2018-01-07T05:35:43.185Z,7.10
2018-01-07T05:38:15.028Z,7.07
2018-01-07T05:40:45.450Z,6.96
2018-01-07T05:43:17.635Z,6.90
2018-01-07T05:45:50.347Z,6.99
2018-01-07T05:48:22.103Z,7.03
2018-01-07T05:50:53.205Z,6.94
2018-01-07T05:53:24.883Z,6.94
2018-01-07T05:55:56.416Z,6.90
2018-01-07T05:58:26.989Z,6.95
2018-01-07T06:00:58.237Z,6.97
2018-01-07T06:03:29.103Z,6.87
2018-01-07T06:06:00.107Z,6.91
2018-01-07T06:08:31.748Z,6.87
2018-01-07T06:11:02.662Z,6.76
2018-01-07T06:13:33.664Z,6.79
2018-01-07T06:18:43.523Z,6.65
2018-01-07T06:21:15.016Z,6.52
2018-01-07T06:23:49.755Z,6.60
2018-01-07T06:26:21.926Z,6.64
2018-01-07T06:28:53.670Z,6.60
2018-01-07T06:31:25.319Z,6.57
2018-01-07T06:33:56.690Z,6.58
2018-01-07T06:36:27.403Z,6.61
2018-01-07T06:38:59.458Z,6.64
2018-01-07T06:41:34.976Z,6.69
2018-01-07T06:44:05.326Z,6.65
2018-01-07T06:46:36.561Z,6.60
2018-01-07T06:49:08.317Z,6.58
2018-01-07T06:51:39.022Z,6.67
2018-01-07T06:54:09.749Z,6.68
2018-01-07T06:56:40.823Z,6.67
2018-01-07T06:59:12.183Z,6.72
2018-01-07T07:01:42.649Z,6.55
2018-01-07T07:04:13.317Z,6.73
2018-01-07T07:06:44.137Z,6.59
2018-01-07T07:09:14.847Z,6.66
2018-01-07T07:11:46.222Z,6.66
2018-01-07T07:14:17.721Z,6.69
2018-01-07T07:16:49.465Z,6.75
2018-01-07T07:19:20.909Z,6.74
2018-01-07T07:21:52.175Z,6.73
2018-01-07T07:24:47.351Z,6.75
2018-01-07T07:27:19.425Z,6.84
2018-01-07T07:29:49.855Z,6.78
2018-01-07T07:32:20.819Z,6.74
2018-01-07T07:34:51.863Z,6.77
2018-01-07T07:37:22.755Z,6.75
2018-01-07T07:39:53.542Z,6.79
2018-01-07T07:42:25.417Z,6.76
2018-01-07T07:44:57.247Z,6.87
2018-01-07T07:47:28.225Z,6.85
2018-01-07T07:49:58.964Z,6.87
2018-01-07T07:52:29.341Z,7.00
2018-01-07T07:54:59.990Z,7.07
2018-01-07T07:57:31.023Z,6.98
2018-01-07T08:00:06.773Z,6.89
2018-01-07T08:02:37.578Z,6.97
2018-01-07T08:05:08.043Z,6.89
2018-01-07T08:07:38.427Z,6.97
2018-01-07T08:10:09.937Z,6.97
2018-01-07T08:12:40.770Z,7.01
2018-01-07T08:15:15.048Z,6.98
2018-01-07T08:17:46.669Z,6.92
2018-01-07T08:20:18.767Z,6.93
2018-01-07T08:22:49.537Z,6.92
2018-01-07T08:25:21.433Z,6.94
2018-01-07T08:27:51.783Z,6.89
2018-01-07T08:30:32.208Z,6.77
2018-01-07T08:33:03.021Z,6.74
2018-01-07T08:35:35.772Z,6.67
2018-01-07T08:38:06.061Z,6.62
2018-01-07T08:40:36.650Z,6.55
2018-01-07T08:43:07.154Z,6.72
2018-01-07T08:45:37.980Z,6.72
2018-01-07T08:48:08.779Z,6.67
2018-01-07T08:50:39.202Z,6.69
2018-01-07T08:53:09.496Z,6.67
2018-01-07T08:55:40.926Z,6.85
2018-01-07T08:58:11.334Z,6.83
2018-01-07T09:00:45.900Z,6.83
2018-01-07T09:03:16.656Z,6.76
2018-01-07T09:05:47.124Z,6.81
2018-01-07T09:08:17.548Z,6.82
2018-01-07T09:10:49.072Z,6.88
2018-01-07T09:13:20.485Z,7.02
2018-01-07T09:15:51.041Z,7.05
2018-01-07T09:18:22.711Z,7.08
2018-01-07T09:20:53.152Z,7.03
2018-01-07T09:23:24.299Z,6.92
2018-01-07T09:25:54.911Z,6.91
2018-01-07T09:28:25.302Z,6.91
2018-01-07T09:30:55.969Z,6.89
2018-01-07T09:33:26.686Z,7.02
2018-01-07T09:35:57.270Z,7.10
2018-01-07T09:38:27.787Z,7.12
2018-01-07T09:40:59.177Z,7.08
2018-01-07T09:43:30.112Z,6.95
2018-01-07T09:46:03.076Z,6.99
2018-01-07T09:48:34.058Z,7.00
2018-01-07T09:51:05.462Z,7.01
2018-01-07T09:53:36.142Z,6.88
2018-01-07T09:56:06.674Z,6.92
2018-01-07T09:58:37.051Z,6.89
2018-01-07T10:01:08.303Z,6.94
2018-01-07T10:03:38.651Z,6.98
2018-01-07T10:06:09.124Z,7.00
2018-01-07T10:08:39.977Z,7.09
2018-01-07T10:11:10.310Z,6.97
2018-01-07T10:13:40.754Z,6.88
2018-01-07T10:16:13.617Z,6.73
2018-01-07T10:18:44.082Z,6.67
2018-01-07T10:21:14.397Z,6.74
2018-01-07T10:23:45.409Z,6.79
2018-01-07T10:26:16.138Z,6.81
2018-01-07T10:28:46.655Z,6.86
2018-01-07T10:31:17.770Z,6.76
2018-01-07T10:33:48.466Z,6.85
2018-01-07T10:36:18.846Z,6.90
2018-01-07T10:38:49.291Z,6.87
2018-01-07T10:41:28.974Z,6.95
2018-01-07T10:44:00.039Z,6.83
2018-01-07T10:46:31.133Z,6.80
2018-01-07T10:49:02.334Z,6.93
2018-01-07T10:51:33.325Z,6.83
2018-01-07T10:54:04.720Z,6.85
2018-01-07T10:56:35.233Z,6.96
2018-01-07T10:59:09.692Z,6.99
2018-01-07T11:01:46.478Z,7.05
2018-01-07T11:04:17.036Z,7.03
2018-01-07T11:06:48.529Z,7.12
2018-01-07T11:09:18.952Z,7.05
2018-01-07T11:11:50.419Z,7.01
2018-01-07T11:14:21.120Z,7.18
2018-01-07T11:16:54.606Z,7.11
2018-01-07T11:19:26.489Z,7.06
2018-01-07T11:21:58.593Z,7.03
2018-01-07T11:24:29.163Z,7.15
2018-01-07T11:27:00.197Z,7.27
2018-01-07T11:29:31.645Z,7.33
2018-01-07T11:32:09.032Z,7.39
2018-01-07T11:34:42.799Z,7.24
2018-01-07T11:37:14.828Z,7.32
2018-01-07T11:39:46.174Z,7.08
2018-01-07T11:42:16.785Z,7.15
2018-01-07T11:44:47.939Z,7.23
2018-01-07T11:47:20.013Z,7.14
2018-01-07T11:49:50.495Z,7.11
2018-01-07T11:52:21.545Z,7.03
2018-01-07T11:54:52.849Z,7.05
2018-01-07T11:57:24.468Z,6.94
2018-01-07T11:59:54.956Z,6.94
2018-01-07T12:02:28.585Z,6.77
2018-01-07T12:05:00.555Z,6.83
2018-01-07T12:07:34.011Z,6.86
2018-01-07T12:10:09.334Z,6.86
2018-01-07T12:12:40.879Z,7.07
2018-01-07T12:15:16.156Z,7.08
2018-01-07T12:17:52.127Z,7.09
2018-01-07T12:20:23.277Z,7.15
2018-01-07T12:22:59.909Z,7.25
2018-01-07T12:25:35.947Z,7.28
2018-01-07T12:28:06.829Z,7.26
2018-01-07T12:32:12.197Z,7.27
2018-01-07T12:34:52.430Z,7.10
2018-01-07T12:37:23.672Z,7.25
2018-01-07T12:39:54.736Z,7.19
2018-01-07T12:42:27.259Z,7.19
2018-01-07T12:45:00.121Z,6.87
2018-01-07T12:47:35.736Z,6.97
2018-01-07T12:50:12.760Z,6.97
2018-01-07T12:52:43.738Z,7.01
2018-01-07T12:55:14.360Z,7.05
2018-01-07T12:57:45.513Z,6.95
2018-01-07T13:00:19.149Z,7.01
2018-01-07T13:02:49.710Z,7.09
2018-01-07T13:05:22.406Z,6.98
2018-01-07T13:07:53.593Z,6.86
2018-01-07T13:10:26.406Z,6.89
2018-01-07T13:12:57.364Z,6.83
2018-01-07T13:15:30.144Z,6.90
2018-01-07T13:18:01.050Z,6.95
2018-01-07T13:20:32.154Z,6.89
2018-01-07T13:23:05.445Z,6.91
2018-01-07T13:28:24.821Z,6.96
2018-01-07T13:31:01.499Z,7.04
2018-01-07T13:33:33.219Z,7.01
2018-01-07T13:36:04.299Z,7.02
2018-01-07T13:38:38.442Z,6.88
2018-01-07T13:41:09.776Z,6.99
2018-01-07T13:43:41.387Z,7.01
2018-01-07T13:46:12.029Z,6.98
2018-01-07T13:48:42.596Z,6.87
2018-01-07T13:51:29.412Z,6.77
2018-01-07T13:54:01.279Z,6.72
2018-01-07T13:56:32.649Z,6.73
2018-01-07T14:01:47.493Z,6.65
2018-01-07T14:04:18.848Z,6.67
2018-01-07T14:06:52.277Z,6.71
2018-01-07T14:09:25.995Z,6.80
2018-01-07T14:11:59.354Z,6.80
2018-01-07T14:14:34.162Z,6.74
2018-01-07T14:17:09.748Z,6.70
2018-01-07T14:19:48.747Z,6.63
2018-01-07T14:22:21.863Z,6.64
2018-01-07T14:24:52.778Z,6.67
2018-01-07T14:27:32.046Z,6.55
2018-01-07T14:30:09.228Z,6.47
2018-01-07T14:32:40.296Z,6.47
2018-01-07T14:35:14.408Z,6.46
2018-01-07T14:37:47.621Z,6.50
2018-01-07T14:40:19.372Z,6.47
2018-01-07T14:42:51.715Z,6.56
2018-01-07T14:45:25.237Z,6.66
2018-01-07T14:47:56.316Z,6.66
2018-01-07T14:50:31.236Z,6.59
2018-01-07T14:53:06.446Z,6.57
2018-01-07T14:55:42.990Z,6.55
2018-01-07T14:58:17.698Z,6.49
2018-01-07T15:00:48.793Z,6.41
2018-01-07T15:03:19.696Z,6.42
2018-01-07T15:05:50.408Z,6.45
2018-01-07T15:08:21.636Z,6.45
2018-01-07T15:10:52.744Z,6.42
2018-01-07T15:13:23.611Z,6.45
2018-01-07T15:15:56.169Z,6.39
2018-01-07T15:18:30.653Z,6.42
2018-01-07T15:21:17.139Z,6.51
2018-01-07T15:23:54.637Z,6.58
2018-01-07T15:26:27.983Z,6.44
2018-01-07T15:29:07.037Z,6.34
2018-01-07T15:31:39.610Z,6.32
2018-01-07T15:34:16.052Z,6.34
2018-01-07T15:36:47.784Z,6.34
2018-01-07T15:39:20.445Z,6.26
2018-01-07T15:41:52.957Z,6.26
2018-01-07T15:44:26.167Z,6.27
2018-01-07T15:47:01.511Z,6.33
2018-01-07T15:49:32.486Z,6.43
2018-01-07T15:52:04.556Z,6.34
2018-01-07T15:54:39.028Z,6.33
2018-01-07T15:57:17.942Z,6.32
2018-01-07T15:59:51.707Z,6.38
2018-01-07T16:02:24.001Z,6.45
2018-01-07T16:04:55.731Z,6.43
2018-01-07T16:07:27.910Z,6.36
2018-01-07T16:09:59.387Z,6.42
2018-01-07T16:12:37.059Z,6.32
2018-01-07T16:15:10.013Z,6.31
2018-01-07T16:17:44.944Z,6.46
2018-01-07T16:20:16.368Z,6.53
2018-01-07T16:22:49.070Z,6.49
2018-01-07T16:25:24.090Z,6.51
2018-01-07T16:27:57.917Z,6.48
2018-01-07T16:30:54.605Z,6.55
2018-01-07T16:33:38.609Z,6.52
2018-01-07T16:36:10.084Z,6.41
2018-01-07T16:38:41.861Z,6.18
2018-01-07T16:41:17.097Z,6.23
2018-01-07T16:43:48.906Z,6.37
2018-01-07T16:46:20.369Z,6.25
2018-01-07T16:49:03.520Z,6.18
2018-01-07T16:51:45.382Z,6.21
2018-01-07T16:54:16.648Z,6.27
2018-01-07T16:56:47.946Z,6.34
2018-01-07T16:59:19.513Z,6.32
2018-01-07T17:01:53.642Z,6.27
2018-01-07T17:04:25.750Z,6.23
2018-01-07T17:06:56.433Z,6.22
2018-01-07T17:09:26.723Z,6.12
2018-01-07T17:12:01.900Z,6.16
2018-01-07T17:14:33.521Z,5.97
2018-01-07T17:17:11.206Z,6.25
2018-01-07T17:19:42.831Z,6.22
2018-01-07T17:22:13.400Z,6.21
2018-01-07T17:24:46.365Z,6.23
2018-01-07T17:27:21.974Z,6.20
2018-01-07T17:29:53.584Z,6.15
2018-01-07T17:32:24.703Z,6.15
2018-01-07T17:34:55.731Z,5.96
2018-01-07T17:40:11.519Z,6.01
2018-01-07T17:42:42.247Z,6.05
2018-01-07T17:45:17.689Z,6.08
2018-01-07T17:47:48.783Z,6.07
2018-01-07T17:50:20.646Z,5.95
2018-01-07T17:52:52.264Z,5.86
2018-01-07T17:55:25.513Z,5.88
2018-01-07T17:57:57.121Z,5.82
2018-01-07T18:00:28.141Z,5.74
2018-01-07T18:02:59.835Z,5.75
2018-01-07T18:05:33.141Z,5.69
2018-01-07T18:08:06.388Z,5.66
2018-01-07T18:10:37.130Z,5.60
2018-01-07T18:13:08.532Z,5.60
2018-01-07T18:15:40.414Z,5.66
2018-01-07T18:18:12.206Z,5.56
2018-01-07T18:20:44.295Z,5.55
2018-01-07T18:23:15.809Z,5.58
2018-01-07T18:25:47.391Z,5.54
2018-01-07T18:30:58.915Z,5.54
2018-01-07T18:33:30.205Z,5.59
2018-01-07T18:36:01.219Z,5.65
2018-01-07T18:38:32.025Z,5.69
2018-01-07T18:41:03.565Z,5.68
2018-01-07T18:43:34.569Z,5.64
2018-01-07T18:46:07.475Z,5.60
2018-01-07T18:48:39.316Z,5.61
2018-01-07T18:51:13.533Z,5.61
2018-01-07T18:53:46.957Z,5.61
2018-01-07T18:56:17.503Z,5.56
2018-01-07T18:58:54.362Z,5.55
2018-01-07T19:01:26.699Z,5.58
2018-01-07T19:03:59.693Z,5.60
2018-01-07T19:06:31.304Z,5.68
2018-01-07T19:09:04.321Z,5.70
2018-01-07T19:11:37.198Z,5.76
2018-01-07T19:14:08.450Z,5.78
2018-01-07T19:16:43.097Z,5.78
2018-01-07T19:19:20.626Z,5.68
2018-01-07T19:21:52.437Z,5.63
2018-01-07T19:24:24.245Z,5.63
2018-01-07T19:26:55.796Z,5.63
2018-01-07T19:29:33.427Z,5.65
2018-01-07T19:32:09.935Z,5.61
2018-01-07T19:34:46.495Z,5.64
2018-01-07T19:37:18.509Z,5.59
2018-01-07T19:39:49.718Z,5.60
2018-01-07T19:42:20.805Z,5.68
2018-01-07T19:44:51.890Z,5.72
2018-01-07T19:47:23.863Z,5.71
2018-01-07T19:50:12.077Z,5.71
2018-01-07T19:52:44.893Z,5.52
2018-01-07T19:55:16.825Z,5.55
2018-01-07T19:57:49.222Z,5.50
2018-01-07T20:00:24.499Z,5.45
2018-01-07T20:03:01.682Z,5.58
2018-01-07T20:05:44.663Z,5.48
2018-01-07T20:08:23.327Z,5.34
2018-01-07T20:10:55.035Z,5.41
2018-01-07T20:13:28.111Z,5.48
2018-01-07T20:15:59.085Z,5.45
2018-01-07T20:18:32.560Z,5.43
2018-01-07T20:21:07.492Z,5.41
2018-01-07T20:23:41.112Z,5.48
2018-01-07T20:26:21.052Z,5.49
2018-01-07T20:28:55.184Z,5.38
2018-01-07T20:31:29.769Z,5.42
2018-01-07T20:34:02.969Z,5.41
2018-01-07T20:36:42.315Z,5.40
2018-01-07T20:39:17.902Z,5.43
2018-01-07T20:42:10.373Z,5.48
2018-01-07T20:44:58.294Z,5.36
2018-01-07T20:47:41.428Z,5.41
2018-01-07T20:50:13.606Z,5.42
2018-01-07T20:52:47.534Z,5.39
2018-01-07T20:55:18.084Z,5.45
2018-01-07T20:57:51.420Z,5.45
2018-01-07T21:00:24.653Z,5.30
2018-01-07T21:03:01.863Z,5.32
2018-01-07T21:05:50.779Z,5.39
2018-01-07T21:08:31.748Z,5.40
2018-01-07T21:11:08.286Z,5.45
2018-01-07T21:13:45.209Z,5.46
2018-01-07T21:16:17.046Z,5.37
2018-01-07T21:18:48.959Z,5.48
2018-01-07T21:21:19.982Z,5.46
2018-01-07T21:23:54.319Z,5.44
2018-01-07T21:26:26.865Z,5.41
2018-01-07T21:28:57.324Z,5.37
2018-01-07T21:31:28.893Z,5.36
2018-01-07T21:33:59.563Z,5.35
2018-01-07T21:36:30.880Z,5.42
2018-01-07T21:39:01.546Z,5.50
2018-01-07T21:41:32.487Z,5.40
2018-01-07T21:44:03.285Z,5.40
2018-01-07T21:46:36.401Z,5.42
2018-01-07T21:49:06.953Z,5.47
2018-01-07T21:51:39.464Z,5.53
2018-01-07T21:54:15.273Z,5.43
2018-01-07T21:56:57.946Z,5.53
2018-01-07T21:59:38.268Z,5.62
2018-01-07T22:02:32.897Z,5.67
2018-01-07T22:05:04.383Z,5.70
2018-01-07T22:07:42.822Z,5.56
2018-01-07T22:10:13.434Z,5.53
2018-01-07T22:12:44.239Z,5.55
2018-01-07T22:15:18.859Z,5.51
2018-01-07T22:17:49.317Z,5.50
2018-01-07T22:20:19.745Z,5.44
2018-01-07T22:22:50.271Z,5.48
2018-01-07T22:25:20.782Z,5.56
2018-01-07T22:27:51.178Z,5.58
2018-01-07T22:30:22.017Z,5.48
2018-01-07T22:32:52.714Z,5.46
2018-01-07T22:35:23.453Z,5.43
2018-01-07T22:37:54.483Z,5.51
2018-01-07T22:40:26.372Z,5.51
2018-01-07T22:42:57.200Z,5.58
2018-01-07T22:45:28.285Z,5.55
2018-01-07T22:48:04.099Z,5.52
2018-01-07T22:50:34.875Z,5.52
2018-01-07T22:53:06.990Z,5.47
2018-01-07T22:55:38.280Z,5.47
2018-01-07T22:58:11.577Z,5.44
2018-01-07T23:00:46.162Z,5.46
2018-01-07T23:03:17.051Z,5.45
2018-01-07T23:05:47.759Z,5.50
2018-01-07T23:08:18.857Z,5.61
2018-01-07T23:10:49.209Z,5.69
2018-01-07T23:13:19.991Z,5.62
2018-01-07T23:15:51.146Z,5.65
2018-01-07T23:18:21.527Z,5.59
2018-01-07T23:20:52.416Z,5.55
2018-01-07T23:23:24.444Z,5.63
2018-01-07T23:25:54.988Z,5.62
2018-01-07T23:28:25.469Z,5.54
2018-01-07T23:30:57.787Z,5.53
2018-01-07T23:33:28.158Z,5.61
2018-01-07T23:35:59.030Z,5.52
2018-01-07T23:38:29.911Z,5.55
2018-01-07T23:41:00.429Z,5.56
2018-01-07T23:43:31.960Z,5.61
2018-01-07T23:46:04.256Z,5.65
2018-01-07T23:48:35.773Z,5.57
2018-01-07T23:51:06.814Z,5.55
2018-01-07T23:53:38.708Z,5.56
2018-01-07T23:56:12.818Z,5.62
2018-01-07T23:58:43.118Z,5.60
